Pagrindinis puslapis
METAR-TAF:

METAR-TAF

Oro uostai :

Plainview, Teksasas, Jungtinės Amerikos Valstijos

platuma: 34-10-05N, ilguma: 101-43-02W, Aukštis: 1028 m

Dabartinis oras

Ataskaita buvo paskelbta 29 minutes, ne 15:35 UTC
Vėjas 5 kt iš Vakarų
Temperatūra 22°C
Drėgmė 53%
Slėgis 1023 hPa
Matomumas: 16.1 km
Giedras dangus

METAR: KPVW 031535Z AUTO 27005KT 10SM CLR 22/12 A3021 RMK AO2 T02210117

Laikas: 11:04 (16:04 UTC)

Prognozė

Ataskaita buvo paskelbta 4 valandos ir 44 minutes, ne 11:20 UTC
Prognozė galioja nuo 03 metu 12 UTC su 04 metu 12 UTC
Vėjas 5 kt iš Rytų
Matomumas: 10 km
Giedras dangus

TAF: KPVW 031120Z 0312/0412 10005KT P6SM SKC

Orai ataskaitas ir orų prognozės (METAR, TAF).

turimą stotys yra geltonos ir raudonos taškus žemėlapyje.

Perkelti pele per norėdami pamatyti stoties vardą.

Tada spustelėkite, norėdami matyti oro stebėjimo ir prognozės.

Norėdami pakeisti žemėlapį: spustelėkite ant žalios mygtukų su juodo kryžiaus žemyn,; žalią mygtuką su brūkšneliu, jei norite nutolinti; arba žalių rodyklių gretimoms žemėlapius.


METAR-TAF: